createdAt,value
2023-02-05T00:00:55.030Z,0.00
2023-02-05T00:01:54.998Z,0.00
2023-02-05T00:02:54.982Z,0.00
2023-02-05T00:03:54.987Z,0.00
2023-02-05T00:04:54.948Z,0.00
2023-02-05T00:05:54.979Z,0.00
2023-02-05T00:06:54.972Z,0.00
2023-02-05T00:07:54.934Z,0.00
2023-02-05T00:08:54.913Z,0.00
2023-02-05T00:09:54.887Z,0.00
2023-02-05T00:10:54.947Z,0.00
2023-02-05T00:11:54.892Z,0.00
2023-02-05T00:12:54.874Z,0.00
2023-02-05T00:13:54.846Z,0.00
2023-02-05T00:14:54.843Z,0.00
2023-02-05T00:15:54.856Z,0.00
2023-02-05T00:16:54.961Z,0.00
2023-02-05T00:17:54.832Z,0.00
2023-02-05T00:18:54.791Z,0.00
2023-02-05T00:19:54.780Z,0.00
2023-02-05T00:20:54.805Z,0.00
2023-02-05T00:21:54.761Z,0.00
2023-02-05T00:22:54.755Z,0.00
2023-02-05T00:23:54.752Z,0.00
2023-02-05T00:24:54.734Z,0.00
2023-02-05T00:25:54.727Z,0.00
2023-02-05T00:26:54.783Z,0.00
2023-02-05T00:27:54.707Z,0.00
2023-02-05T00:28:54.694Z,0.00
2023-02-05T00:29:54.717Z,0.00
2023-02-05T00:30:54.768Z,0.00
2023-02-05T00:31:54.673Z,0.00
2023-02-05T00:32:54.649Z,0.00
2023-02-05T00:33:54.638Z,0.00
2023-02-05T00:34:54.625Z,0.00
2023-02-05T00:35:54.604Z,0.00
2023-02-05T00:36:54.604Z,0.00
2023-02-05T00:37:54.644Z,0.00
2023-02-05T00:38:54.598Z,0.00
2023-02-05T00:39:54.589Z,0.00
2023-02-05T00:40:54.660Z,0.00
2023-02-05T00:41:54.537Z,0.00
2023-02-05T00:42:54.553Z,0.00
2023-02-05T00:43:54.524Z,0.00
2023-02-05T00:44:54.527Z,0.00
2023-02-05T00:45:54.555Z,0.00
2023-02-05T00:46:54.513Z,0.00
2023-02-05T00:47:54.511Z,0.00
2023-02-05T00:48:54.506Z,0.00
2023-02-05T00:49:54.467Z,0.00
2023-02-05T00:50:54.457Z,0.00
2023-02-05T00:51:54.447Z,0.00
2023-02-05T00:52:54.467Z,0.00
2023-02-05T00:53:54.416Z,0.00
2023-02-05T00:54:54.448Z,0.00
2023-02-05T00:55:54.396Z,0.00
2023-02-05T00:56:54.404Z,0.00
2023-02-05T00:57:54.394Z,0.00
2023-02-05T00:58:54.450Z,0.00
2023-02-05T00:59:54.345Z,0.00
2023-02-05T01:00:54.333Z,0.00
2023-02-05T01:01:54.326Z,0.00
2023-02-05T01:02:54.321Z,0.00
2023-02-05T01:03:54.336Z,0.00
2023-02-05T01:04:54.316Z,0.00
2023-02-05T01:05:54.288Z,0.00
2023-02-05T01:06:54.314Z,0.00
2023-02-05T01:07:54.260Z,0.00
2023-02-05T01:08:54.272Z,0.00
2023-02-05T01:09:54.235Z,0.00
2023-02-05T01:10:54.238Z,0.00
2023-02-05T01:11:54.233Z,0.00
2023-02-05T01:12:54.208Z,0.00
2023-02-05T01:13:54.246Z,0.00
2023-02-05T01:14:54.210Z,0.00
2023-02-05T01:15:54.203Z,0.00
2023-02-05T01:16:54.203Z,0.00
2023-02-05T01:17:54.211Z,0.00
2023-02-05T01:18:54.152Z,0.00
2023-02-05T01:19:54.169Z,0.00
2023-02-05T01:20:54.136Z,0.00
2023-02-05T01:21:54.118Z,0.00
2023-02-05T01:22:54.108Z,0.00
2023-02-05T01:23:54.118Z,0.00
2023-02-05T01:24:54.085Z,0.00
2023-02-05T01:25:54.070Z,0.00
2023-02-05T01:26:54.054Z,0.00
2023-02-05T01:27:54.073Z,0.00
2023-02-05T01:28:54.032Z,0.00
2023-02-05T01:29:54.035Z,0.00
2023-02-05T01:30:54.125Z,0.00
2023-02-05T01:31:54.124Z,0.00
2023-02-05T01:32:53.990Z,0.00
2023-02-05T01:33:53.995Z,0.00
2023-02-05T01:34:54.007Z,0.00
2023-02-05T01:35:53.965Z,0.00
2023-02-05T01:36:53.971Z,0.00
2023-02-05T01:37:54.042Z,0.00
2023-02-05T01:38:53.924Z,0.00
2023-02-05T01:39:53.936Z,0.00
2023-02-05T01:40:53.948Z,0.00
2023-02-05T01:41:53.926Z,0.00
2023-02-05T01:42:53.879Z,0.00
2023-02-05T01:43:53.875Z,0.00
2023-02-05T01:44:53.858Z,0.00
2023-02-05T01:45:53.843Z,0.00
2023-02-05T01:46:53.849Z,0.00
2023-02-05T01:47:53.849Z,0.00
2023-02-05T01:48:53.815Z,0.00
2023-02-05T01:49:53.810Z,0.00
2023-02-05T01:50:53.812Z,0.00
2023-02-05T01:51:53.776Z,0.00
2023-02-05T01:52:53.780Z,0.00
2023-02-05T01:53:53.773Z,0.00
2023-02-05T01:54:53.742Z,0.00
2023-02-05T01:55:53.742Z,0.00
2023-02-05T01:56:53.732Z,0.00
2023-02-05T01:57:53.719Z,0.00
2023-02-05T01:58:53.702Z,0.00
2023-02-05T01:59:53.690Z,0.00
2023-02-05T02:00:53.709Z,0.00
2023-02-05T02:01:53.729Z,0.00
2023-02-05T02:02:53.658Z,0.00
2023-02-05T02:03:53.656Z,0.00
2023-02-05T02:04:53.662Z,0.00
2023-02-05T02:05:53.631Z,0.00
2023-02-05T02:06:53.636Z,0.00
2023-02-05T02:07:53.647Z,0.00
2023-02-05T02:08:53.613Z,0.00
2023-02-05T02:09:53.615Z,0.00
2023-02-05T02:10:53.581Z,0.00
2023-02-05T02:11:53.562Z,0.00
2023-02-05T02:12:53.556Z,0.00
2023-02-05T02:13:53.544Z,0.00
2023-02-05T02:14:53.542Z,0.00
2023-02-05T02:15:53.579Z,0.00
2023-02-05T02:16:53.514Z,0.00
2023-02-05T02:17:53.515Z,0.00
2023-02-05T02:18:53.547Z,0.00
2023-02-05T02:19:53.474Z,0.00
2023-02-05T02:20:53.473Z,0.00
2023-02-05T02:21:53.547Z,0.00
2023-02-05T02:22:53.452Z,0.00
2023-02-05T02:23:54.011Z,0.00
2023-02-05T02:24:53.446Z,0.00
2023-02-05T02:25:53.408Z,0.00
2023-02-05T02:26:53.435Z,0.00
2023-02-05T02:27:53.470Z,0.00
2023-02-05T02:28:53.381Z,0.00
2023-02-05T02:29:53.367Z,0.00
2023-02-05T02:30:54.501Z,0.00
2023-02-05T02:31:53.357Z,0.00
2023-02-05T02:32:53.368Z,0.00
2023-02-05T02:33:53.325Z,0.00
2023-02-05T02:34:53.324Z,0.00
2023-02-05T02:35:53.306Z,0.00
2023-02-05T02:36:53.308Z,0.00
2023-02-05T02:37:53.296Z,0.00
2023-02-05T02:38:53.281Z,0.00
2023-02-05T02:39:53.274Z,0.00
2023-02-05T02:40:53.278Z,0.00
2023-02-05T02:41:53.252Z,0.00
2023-02-05T02:42:53.243Z,0.00
2023-02-05T02:43:53.219Z,0.00
2023-02-05T02:44:53.209Z,0.00
2023-02-05T02:45:53.211Z,0.00
2023-02-05T02:46:53.246Z,0.00
2023-02-05T02:47:53.204Z,0.00
2023-02-05T02:48:53.192Z,0.00
2023-02-05T02:49:53.164Z,0.00
2023-02-05T02:50:53.159Z,0.00
2023-02-05T02:51:53.152Z,0.00
2023-02-05T02:52:53.152Z,0.00
2023-02-05T02:53:53.118Z,0.00
2023-02-05T02:54:53.176Z,0.00
2023-02-05T02:55:53.126Z,0.00
2023-02-05T02:56:53.110Z,0.00
2023-02-05T02:57:53.096Z,0.00
2023-02-05T02:58:53.071Z,0.00
2023-02-05T02:59:53.054Z,0.00
2023-02-05T03:00:53.138Z,0.00
2023-02-05T03:01:54.014Z,0.00
2023-02-05T03:02:53.068Z,0.00
2023-02-05T03:03:53.079Z,0.00
2023-02-05T03:04:53.002Z,0.00
2023-02-05T03:05:53.016Z,0.00
2023-02-05T03:06:53.001Z,0.00
2023-02-05T03:07:52.967Z,0.00
2023-02-05T03:08:52.972Z,0.00
2023-02-05T03:09:52.977Z,0.00
2023-02-05T03:10:52.939Z,0.00
2023-02-05T03:11:52.963Z,0.00
2023-02-05T03:12:52.937Z,0.00
2023-02-05T03:13:52.913Z,0.00
2023-02-05T03:14:52.916Z,0.00
2023-02-05T03:15:52.926Z,0.00
2023-02-05T03:16:52.924Z,0.00
2023-02-05T03:17:52.866Z,0.00
2023-02-05T03:18:52.861Z,0.00
2023-02-05T03:19:52.854Z,0.00
2023-02-05T03:20:52.862Z,0.00
2023-02-05T03:21:52.872Z,0.00
2023-02-05T03:22:52.817Z,0.00
2023-02-05T03:23:52.826Z,0.00
2023-02-05T03:24:52.791Z,0.00
2023-02-05T03:25:52.790Z,0.00
2023-02-05T03:26:52.795Z,0.00
2023-02-05T03:27:52.815Z,0.00
2023-02-05T03:28:52.782Z,0.00
2023-02-05T03:29:52.743Z,0.00
2023-02-05T03:30:52.787Z,0.00
2023-02-05T03:31:52.779Z,0.00
2023-02-05T03:32:52.716Z,0.00
2023-02-05T03:33:52.695Z,0.00
2023-02-05T03:34:52.693Z,0.00
2023-02-05T03:35:52.682Z,0.00
2023-02-05T03:36:52.687Z,0.00
2023-02-05T03:37:52.668Z,0.00
2023-02-05T03:38:52.647Z,0.00
2023-02-05T03:39:52.627Z,0.00
2023-02-05T03:40:52.630Z,0.00
2023-02-05T03:41:52.609Z,0.00
2023-02-05T03:42:52.624Z,0.00
2023-02-05T03:43:52.599Z,0.00
2023-02-05T03:44:52.610Z,0.00
2023-02-05T03:45:52.587Z,0.00
2023-02-05T03:46:52.564Z,0.00
2023-02-05T03:47:52.579Z,0.00
2023-02-05T03:48:52.541Z,0.00
2023-02-05T03:49:52.538Z,0.00
2023-02-05T03:50:52.543Z,0.00
2023-02-05T03:51:52.504Z,0.00
2023-02-05T03:52:52.522Z,0.00
2023-02-05T03:53:52.479Z,0.00
2023-02-05T03:54:52.465Z,0.00
2023-02-05T03:55:52.456Z,0.00
2023-02-05T03:56:52.466Z,0.00
2023-02-05T03:57:52.473Z,0.00
2023-02-05T03:58:52.435Z,0.00
2023-02-05T03:59:52.414Z,0.00
2023-02-05T04:00:58.371Z,0.00
2023-02-05T04:01:53.465Z,0.00
2023-02-05T04:02:52.412Z,0.00
2023-02-05T04:03:52.375Z,0.00
2023-02-05T04:04:52.372Z,0.00
2023-02-05T04:05:52.355Z,0.00
2023-02-05T04:06:52.337Z,0.00
2023-02-05T04:07:52.360Z,0.00
2023-02-05T04:08:52.326Z,0.00
2023-02-05T04:09:52.311Z,0.00
2023-02-05T04:10:52.289Z,0.00
2023-02-05T04:11:52.294Z,0.00
2023-02-05T04:12:52.272Z,0.00
2023-02-05T04:13:52.304Z,0.00
2023-02-05T04:14:52.247Z,0.00
2023-02-05T04:15:52.254Z,0.00
2023-02-05T04:16:52.229Z,0.00
2023-02-05T04:17:52.264Z,0.00
2023-02-05T04:18:52.209Z,0.00
2023-02-05T04:19:52.237Z,0.00
2023-02-05T04:20:52.197Z,0.00
2023-02-05T04:21:52.182Z,0.00
2023-02-05T04:22:52.190Z,0.00
2023-02-05T04:23:52.235Z,0.00
2023-02-05T04:24:52.152Z,0.00
2023-02-05T04:25:52.133Z,0.00
2023-02-05T04:26:52.127Z,0.00
2023-02-05T04:27:59.938Z,0.00
2023-02-05T04:28:52.109Z,0.00
2023-02-05T04:29:52.121Z,0.00
2023-02-05T04:30:52.126Z,0.00
2023-02-05T04:31:52.128Z,0.00
2023-02-05T04:32:52.066Z,0.00
2023-02-05T04:33:52.109Z,0.00
2023-02-05T04:34:52.042Z,0.00
2023-02-05T04:35:52.032Z,0.00
2023-02-05T04:36:52.034Z,0.00
2023-02-05T04:37:52.021Z,0.00
2023-02-05T04:38:52.002Z,0.00
2023-02-05T04:39:52.052Z,0.00
2023-02-05T04:40:52.006Z,0.00
2023-02-05T04:41:51.974Z,0.00
2023-02-05T04:42:51.997Z,0.00
2023-02-05T04:43:51.956Z,0.00
2023-02-05T04:44:51.937Z,0.00
2023-02-05T04:45:51.961Z,0.00
2023-02-05T04:46:51.921Z,0.00
2023-02-05T04:47:52.012Z,0.00
2023-02-05T04:48:51.908Z,0.00
2023-02-05T04:49:57.882Z,0.00
2023-02-05T04:50:52.929Z,0.00
2023-02-05T04:51:51.873Z,0.00
2023-02-05T04:52:51.860Z,0.00
2023-02-05T04:53:51.850Z,0.00
2023-02-05T04:54:51.833Z,0.00
2023-02-05T04:55:51.843Z,0.00
2023-02-05T04:56:51.841Z,0.00
2023-02-05T04:57:52.739Z,0.00
2023-02-05T04:58:51.802Z,0.00
2023-02-05T04:59:51.783Z,0.00
2023-02-05T05:00:51.811Z,0.00
2023-02-05T05:01:51.785Z,0.00
2023-02-05T05:02:51.760Z,0.00
2023-02-05T05:03:51.756Z,0.00
2023-02-05T05:04:51.742Z,0.00
2023-02-05T05:05:51.725Z,0.00
2023-02-05T05:06:51.752Z,0.00
2023-02-05T05:07:51.708Z,0.00
2023-02-05T05:08:51.687Z,0.00
2023-02-05T05:09:52.581Z,0.00
2023-02-05T05:10:51.672Z,0.00
2023-02-05T05:11:51.690Z,0.00
2023-02-05T05:12:51.656Z,0.00
2023-02-05T05:13:51.663Z,0.00
2023-02-05T05:14:51.623Z,0.00
2023-02-05T05:15:51.652Z,0.00
2023-02-05T05:16:51.628Z,0.00
2023-02-05T05:17:51.589Z,0.00
2023-02-05T05:18:51.633Z,0.00
2023-02-05T05:19:51.582Z,0.00
2023-02-05T05:20:51.560Z,0.00
2023-02-05T05:21:51.551Z,0.00
2023-02-05T05:22:51.584Z,0.00
2023-02-05T05:23:51.556Z,0.00
2023-02-05T05:24:51.563Z,0.00
2023-02-05T05:25:51.524Z,0.00
2023-02-05T05:26:51.507Z,0.00
2023-02-05T05:27:51.500Z,0.00
2023-02-05T05:28:51.471Z,0.00
2023-02-05T05:29:51.487Z,0.00
2023-02-05T05:30:51.591Z,0.00
2023-02-05T05:31:51.527Z,0.00
2023-02-05T05:32:51.463Z,0.00
2023-02-05T05:33:51.434Z,0.00
2023-02-05T05:34:51.411Z,0.00
2023-02-05T05:35:51.397Z,0.00
2023-02-05T05:36:51.409Z,0.00
2023-02-05T05:37:51.413Z,0.00
2023-02-05T05:38:51.466Z,0.00
2023-02-05T05:39:51.354Z,0.00
2023-02-05T05:40:51.359Z,0.00
2023-02-05T05:41:51.342Z,0.00
2023-02-05T05:42:51.359Z,0.00
2023-02-05T05:43:51.356Z,0.00
2023-02-05T05:44:51.307Z,0.00
2023-02-05T05:45:51.322Z,0.00
2023-02-05T05:46:51.290Z,0.00
2023-02-05T05:47:51.294Z,0.00
2023-02-05T05:48:51.268Z,0.00
2023-02-05T05:49:51.286Z,0.00
2023-02-05T05:50:51.248Z,0.00
2023-02-05T05:51:51.247Z,0.00
2023-02-05T05:52:51.232Z,0.00
2023-02-05T05:53:51.214Z,0.00
2023-02-05T05:54:51.218Z,0.00
2023-02-05T05:55:51.229Z,0.00
2023-02-05T05:56:51.200Z,0.00
2023-02-05T05:57:51.198Z,0.00
2023-02-05T05:58:51.147Z,0.00
2023-02-05T05:59:51.149Z,0.00
2023-02-05T06:00:51.138Z,0.00
2023-02-05T06:01:51.145Z,0.00
2023-02-05T06:02:51.128Z,0.00
2023-02-05T06:03:51.098Z,0.00
2023-02-05T06:04:51.133Z,0.00
2023-02-05T06:05:51.089Z,0.00
2023-02-05T06:06:51.069Z,0.00
2023-02-05T06:07:51.055Z,4.00
2023-02-05T06:08:51.044Z,0.00
2023-02-05T06:09:51.042Z,0.00
2023-02-05T06:10:51.071Z,4.00
2023-02-05T06:11:51.030Z,4.00
2023-02-05T06:12:50.994Z,0.00
2023-02-05T06:13:51.012Z,4.00
2023-02-05T06:14:50.981Z,4.00
2023-02-05T06:15:51.006Z,4.00
2023-02-05T06:16:50.966Z,4.00
2023-02-05T06:17:50.954Z,8.00
2023-02-05T06:18:50.965Z,8.00
2023-02-05T06:19:50.930Z,8.00
2023-02-05T06:20:50.915Z,8.00
2023-02-05T06:21:50.932Z,12.00
2023-02-05T06:22:50.894Z,16.00
2023-02-05T06:23:50.876Z,12.00
2023-02-05T06:24:50.871Z,16.00
2023-02-05T06:25:50.859Z,20.00
2023-02-05T06:26:50.900Z,24.00
2023-02-05T06:27:50.848Z,28.00
2023-02-05T06:28:50.833Z,32.00
2023-02-05T06:29:50.824Z,36.00
2023-02-05T06:30:50.937Z,40.00
2023-02-05T06:31:50.971Z,44.00
2023-02-05T06:32:50.787Z,52.00
2023-02-05T06:33:50.889Z,52.00
2023-02-05T06:34:50.769Z,60.00
2023-02-05T06:35:50.776Z,64.00
2023-02-05T06:36:50.748Z,72.00
2023-02-05T06:37:50.769Z,76.00
2023-02-05T06:38:50.753Z,88.00
2023-02-05T06:39:50.712Z,96.00
2023-02-05T06:40:50.700Z,108.00
2023-02-05T06:41:50.691Z,116.00
2023-02-05T06:42:50.758Z,132.00
2023-02-05T06:43:50.705Z,136.00
2023-02-05T06:44:50.689Z,144.00
2023-02-05T06:45:50.678Z,152.00
2023-02-05T06:46:50.660Z,160.00
2023-02-05T06:47:50.661Z,168.00
2023-02-05T06:48:50.618Z,176.00
2023-02-05T06:49:50.605Z,184.00
2023-02-05T06:50:50.609Z,196.00
2023-02-05T06:51:50.584Z,212.00
2023-02-05T06:52:50.597Z,228.00
2023-02-05T06:53:50.566Z,252.00
2023-02-05T06:54:50.552Z,272.00
2023-02-05T06:55:50.547Z,284.00
2023-02-05T06:56:50.536Z,292.00
2023-02-05T06:57:50.528Z,312.00
2023-02-05T06:58:50.630Z,324.00
2023-02-05T06:59:50.504Z,328.00
2023-02-05T07:00:50.502Z,320.00
2023-02-05T07:01:50.595Z,316.00
2023-02-05T07:02:50.589Z,316.00
2023-02-05T07:03:50.505Z,324.00
2023-02-05T07:04:50.447Z,332.00
2023-02-05T07:05:50.447Z,336.00
2023-02-05T07:06:50.435Z,344.00
2023-02-05T07:07:50.439Z,348.00
2023-02-05T07:08:50.451Z,352.00
2023-02-05T07:09:50.406Z,352.00
2023-02-05T07:10:50.406Z,356.00
2023-02-05T07:11:50.394Z,360.00
2023-02-05T07:12:50.405Z,368.00
2023-02-05T07:13:50.379Z,376.00
2023-02-05T07:14:50.497Z,388.00
2023-02-05T07:15:50.350Z,404.00
2023-02-05T07:16:50.415Z,424.00
2023-02-05T07:17:50.364Z,448.00
2023-02-05T07:18:50.419Z,468.00
2023-02-05T07:19:50.422Z,492.00
2023-02-05T07:20:50.396Z,524.00
2023-02-05T07:21:50.344Z,552.00
2023-02-05T07:22:50.298Z,576.00
2023-02-05T07:23:50.367Z,604.00
2023-02-05T07:24:50.590Z,632.00
2023-02-05T07:25:50.281Z,668.00
2023-02-05T07:26:50.373Z,716.00
2023-02-05T07:27:50.358Z,784.00
2023-02-05T07:28:50.471Z,868.00
2023-02-05T07:29:50.192Z,952.00
2023-02-05T07:30:50.418Z,1004.00
2023-02-05T07:31:50.241Z,1028.00
2023-02-05T07:32:50.970Z,1032.00
2023-02-05T07:33:50.238Z,1024.00
2023-02-05T07:34:50.231Z,1016.00
2023-02-05T07:35:50.541Z,1004.00
2023-02-05T07:36:50.356Z,980.00
2023-02-05T07:37:50.315Z,944.00
2023-02-05T07:38:50.208Z,900.00
2023-02-05T07:39:50.220Z,868.00
2023-02-05T07:40:50.213Z,832.00
2023-02-05T07:41:50.143Z,804.00
2023-02-05T07:42:50.298Z,784.00
2023-02-05T07:43:50.068Z,764.00
2023-02-05T07:44:50.103Z,756.00
2023-02-05T07:45:50.091Z,744.00
2023-02-05T07:46:50.088Z,732.00
2023-02-05T07:47:50.110Z,720.00
2023-02-05T07:48:50.064Z,708.00
2023-02-05T07:49:50.356Z,712.00
2023-02-05T07:50:50.109Z,716.00
2023-02-05T07:51:50.121Z,720.00
2023-02-05T07:52:50.021Z,724.00
2023-02-05T07:53:50.136Z,724.00
2023-02-05T07:54:50.149Z,736.00
2023-02-05T07:55:49.992Z,756.00
2023-02-05T07:56:50.125Z,780.00
2023-02-05T07:57:50.078Z,800.00
2023-02-05T07:58:49.937Z,816.00
2023-02-05T07:59:49.911Z,832.00
2023-02-05T08:00:50.105Z,852.00
2023-02-05T08:01:50.227Z,868.00
2023-02-05T08:02:49.940Z,896.00
2023-02-05T08:03:49.853Z,924.00
2023-02-05T08:04:49.901Z,948.00
2023-02-05T08:05:51.330Z,968.00
2023-02-05T08:06:49.833Z,992.00
2023-02-05T08:07:49.829Z,1012.00
2023-02-05T08:08:49.840Z,1016.00
2023-02-05T08:09:49.993Z,1020.00
2023-02-05T08:10:49.851Z,1024.00
2023-02-05T08:11:49.769Z,1024.00
2023-02-05T08:12:49.803Z,1032.00
2023-02-05T08:13:49.741Z,1056.00
2023-02-05T08:14:49.772Z,1092.00
2023-02-05T08:15:49.699Z,1132.00
2023-02-05T08:16:49.834Z,1172.00
2023-02-05T08:17:49.699Z,1208.00
2023-02-05T08:18:49.735Z,1236.00
2023-02-05T08:19:49.657Z,1260.00
2023-02-05T08:20:49.700Z,1292.00
2023-02-05T08:21:49.671Z,1340.00
2023-02-05T08:22:49.716Z,1384.00
2023-02-05T08:23:49.769Z,1452.00
2023-02-05T08:24:49.705Z,1524.00
2023-02-05T08:25:49.793Z,1584.00
2023-02-05T08:26:49.767Z,1632.00
2023-02-05T08:27:49.574Z,1672.00
2023-02-05T08:28:49.577Z,1708.00
2023-02-05T08:29:49.572Z,1736.00
2023-02-05T08:30:49.608Z,1760.00
2023-02-05T08:31:49.650Z,1776.00
2023-02-05T08:32:49.788Z,1792.00
2023-02-05T08:33:50.770Z,1800.00
2023-02-05T08:34:49.547Z,1824.00
2023-02-05T08:35:49.573Z,1852.00
2023-02-05T08:36:49.512Z,1892.00
2023-02-05T08:37:49.464Z,1948.00
2023-02-05T08:38:49.448Z,2008.00
2023-02-05T08:39:49.460Z,2056.00
2023-02-05T08:40:49.444Z,2108.00
2023-02-05T08:41:49.410Z,2156.00
2023-02-05T08:42:49.411Z,2192.00
2023-02-05T08:43:49.403Z,2220.00
2023-02-05T08:44:49.378Z,2256.00
2023-02-05T08:45:49.430Z,2296.00
2023-02-05T08:46:50.608Z,2320.00
2023-02-05T08:47:49.358Z,2316.00
2023-02-05T08:48:49.376Z,2292.00
2023-02-05T08:49:49.332Z,2284.00
2023-02-05T08:50:49.345Z,2264.00
2023-02-05T08:51:49.337Z,2240.00
2023-02-05T08:52:49.310Z,2224.00
2023-02-05T08:53:49.353Z,2208.00
2023-02-05T08:54:49.290Z,2192.00
2023-02-05T08:55:49.268Z,2172.00
2023-02-05T08:56:49.342Z,2144.00
2023-02-05T08:57:49.248Z,2128.00
2023-02-05T08:58:49.254Z,2112.00
2023-02-05T08:59:49.230Z,2092.00
2023-02-05T09:00:49.252Z,2084.00
2023-02-05T09:01:49.460Z,2056.00
2023-02-05T09:02:49.189Z,2016.00
2023-02-05T09:03:49.189Z,1972.00
2023-02-05T09:04:50.281Z,1920.00
2023-02-05T09:05:49.160Z,1868.00
2023-02-05T09:06:49.168Z,1836.00
2023-02-05T09:07:49.170Z,1820.00
2023-02-05T09:08:49.172Z,1788.00
2023-02-05T09:09:49.126Z,1752.00
2023-02-05T09:10:49.098Z,1720.00
2023-02-05T09:11:49.101Z,1692.00
2023-02-05T09:12:49.093Z,1664.00
2023-02-05T09:13:49.137Z,1640.00
2023-02-05T09:14:49.078Z,1632.00
2023-02-05T09:15:49.066Z,1624.00
2023-02-05T09:16:49.057Z,1608.00
2023-02-05T09:17:49.059Z,1580.00
2023-02-05T09:18:49.075Z,1564.00
2023-02-05T09:19:49.005Z,1568.00
2023-02-05T09:20:49.008Z,1600.00
2023-02-05T09:21:48.987Z,1636.00
2023-02-05T09:22:49.004Z,1664.00
2023-02-05T09:23:49.112Z,1696.00
2023-02-05T09:24:48.956Z,1712.00
2023-02-05T09:25:48.956Z,1724.00
2023-02-05T09:26:48.949Z,1748.00
2023-02-05T09:27:50.619Z,1764.00
2023-02-05T09:28:49.021Z,1788.00
2023-02-05T09:29:48.889Z,1832.00
2023-02-05T09:30:48.990Z,1884.00
2023-02-05T09:31:49.077Z,1948.00
2023-02-05T09:32:48.909Z,2012.00
2023-02-05T09:33:48.909Z,2072.00
2023-02-05T09:34:48.884Z,2124.00
2023-02-05T09:35:48.907Z,2148.00
2023-02-05T09:36:48.828Z,2164.00
2023-02-05T09:37:48.874Z,2184.00
2023-02-05T09:38:48.825Z,2184.00
2023-02-05T09:40:20.391Z,2180.00
2023-02-05T09:40:49.786Z,2212.00
2023-02-05T09:41:48.768Z,2268.00
2023-02-05T09:42:48.828Z,2336.00
2023-02-05T09:43:48.767Z,2428.00
2023-02-05T09:44:48.773Z,2540.00
2023-02-05T09:45:48.863Z,2648.00
2023-02-05T09:46:48.731Z,2748.00
2023-02-05T09:47:48.698Z,2844.00
2023-02-05T09:48:48.695Z,2948.00
2023-02-05T09:49:48.691Z,3024.00
2023-02-05T09:50:48.713Z,3112.00
2023-02-05T09:51:48.686Z,3204.00
2023-02-05T09:52:48.652Z,3316.00
2023-02-05T09:53:48.641Z,3428.00
2023-02-05T09:54:48.645Z,3532.00
2023-02-05T09:55:48.638Z,3628.00
2023-02-05T09:56:48.619Z,3728.00
2023-02-05T09:57:48.601Z,3828.00
2023-02-05T09:58:48.581Z,3924.00
2023-02-05T09:59:48.617Z,4060.00
2023-02-05T10:00:48.584Z,4208.00
2023-02-05T10:01:48.544Z,4388.00
2023-02-05T10:02:48.553Z,4672.00
2023-02-05T10:03:48.562Z,4932.00
2023-02-05T10:04:48.528Z,5336.00
2023-02-05T10:05:48.901Z,6700.00
2023-02-05T10:06:48.513Z,7324.00
2023-02-05T10:07:48.524Z,8400.00
2023-02-05T10:08:48.476Z,7672.00
2023-02-05T10:09:48.488Z,7984.00
2023-02-05T10:10:48.494Z,6600.00
2023-02-05T10:11:48.441Z,6660.00
2023-02-05T10:12:48.424Z,8328.00
2023-02-05T10:13:48.440Z,6784.00
2023-02-05T10:14:49.262Z,6684.00
2023-02-05T10:15:48.460Z,6472.00
2023-02-05T10:16:48.456Z,7644.00
2023-02-05T10:17:48.378Z,11168.00
2023-02-05T10:18:48.394Z,10264.00
2023-02-05T10:19:48.371Z,9712.00
2023-02-05T10:20:48.340Z,8044.00
2023-02-05T10:21:48.336Z,7516.00
2023-02-05T10:22:48.333Z,7020.00
2023-02-05T10:23:48.357Z,6660.00
2023-02-05T10:24:48.296Z,6196.00
2023-02-05T10:25:48.339Z,5836.00
2023-02-05T10:26:48.375Z,5612.00
2023-02-05T10:27:48.303Z,5376.00
2023-02-05T10:28:48.530Z,5248.00
2023-02-05T10:29:48.336Z,5308.00
2023-02-05T10:30:48.368Z,5312.00
2023-02-05T10:31:48.306Z,5300.00
2023-02-05T10:32:48.233Z,5436.00
2023-02-05T10:33:48.192Z,5520.00
2023-02-05T10:34:48.219Z,5552.00
2023-02-05T10:35:48.186Z,5536.00
2023-02-05T10:36:49.223Z,5472.00
2023-02-05T10:37:48.188Z,5420.00
2023-02-05T10:38:48.157Z,5388.00
2023-02-05T10:39:48.159Z,5324.00
2023-02-05T10:40:48.139Z,5336.00
2023-02-05T10:41:48.137Z,5580.00
2023-02-05T10:42:48.113Z,5560.00
2023-02-05T10:43:48.107Z,5468.00
2023-02-05T10:44:48.098Z,5344.00
2023-02-05T10:45:48.142Z,5264.00
2023-02-05T10:46:48.067Z,5232.00
2023-02-05T10:47:48.054Z,5308.00
2023-02-05T10:48:48.048Z,5400.00
2023-02-05T10:49:48.126Z,5428.00
2023-02-05T10:50:48.040Z,5480.00
2023-02-05T10:51:48.010Z,5544.00
2023-02-05T10:52:48.012Z,5572.00
2023-02-05T10:53:47.991Z,5580.00
2023-02-05T10:54:48.035Z,5572.00
2023-02-05T10:55:47.990Z,5532.00
2023-02-05T10:56:48.006Z,5512.00
2023-02-05T10:57:47.943Z,5500.00
2023-02-05T10:58:47.991Z,5416.00
2023-02-05T10:59:47.931Z,5404.00
2023-02-05T11:00:47.919Z,5352.00
2023-02-05T11:01:47.994Z,5268.00
2023-02-05T11:02:48.077Z,5256.00
2023-02-05T11:03:47.947Z,5204.00
2023-02-05T11:04:47.875Z,5188.00
2023-02-05T11:05:47.876Z,5148.00
2023-02-05T11:06:47.855Z,5040.00
2023-02-05T11:07:47.863Z,4956.00
2023-02-05T11:08:47.838Z,4896.00
2023-02-05T11:09:47.825Z,4896.00
2023-02-05T11:10:47.851Z,4936.00
2023-02-05T11:11:47.792Z,4896.00
2023-02-05T11:12:56.418Z,4780.00
2023-02-05T11:13:47.778Z,4752.00
2023-02-05T11:14:47.772Z,4760.00
2023-02-05T11:15:47.757Z,4804.00
2023-02-05T11:16:47.731Z,4872.00
2023-02-05T11:17:47.727Z,4900.00
2023-02-05T11:18:47.718Z,4880.00
2023-02-05T11:19:47.697Z,4852.00
2023-02-05T11:20:47.689Z,4880.00
2023-02-05T11:21:47.691Z,4880.00
2023-02-05T11:22:47.682Z,4884.00
2023-02-05T11:23:47.653Z,4888.00
2023-02-05T11:24:47.649Z,4832.00
2023-02-05T11:25:47.646Z,4828.00
2023-02-05T11:26:47.617Z,4816.00
2023-02-05T11:27:47.646Z,4812.00
2023-02-05T11:28:47.629Z,4856.00
2023-02-05T11:29:47.603Z,4912.00
2023-02-05T11:30:51.124Z,4960.00
2023-02-05T11:31:47.599Z,4960.00
2023-02-05T11:32:47.552Z,4948.00
2023-02-05T11:33:47.557Z,4952.00
2023-02-05T11:34:47.542Z,4956.00
2023-02-05T11:35:47.532Z,4976.00
2023-02-05T11:36:47.509Z,4988.00
2023-02-05T11:37:47.506Z,5000.00
2023-02-05T11:38:47.523Z,4968.00
2023-02-05T11:39:47.487Z,4936.00
2023-02-05T11:40:47.476Z,4892.00
2023-02-05T11:41:47.515Z,4888.00
2023-02-05T11:42:47.453Z,4868.00
2023-02-05T11:43:47.460Z,4860.00
2023-02-05T11:44:47.430Z,4836.00
2023-02-05T11:45:47.417Z,4788.00
2023-02-05T11:46:47.479Z,4764.00
2023-02-05T11:47:47.396Z,4748.00
2023-02-05T11:48:47.385Z,4732.00
2023-02-05T11:49:47.371Z,4724.00
2023-02-05T11:50:47.366Z,4704.00
2023-02-05T11:51:47.421Z,4704.00
2023-02-05T11:52:47.345Z,4736.00
2023-02-05T11:53:47.330Z,4740.00
2023-02-05T11:54:47.317Z,4744.00
2023-02-05T11:55:47.323Z,4736.00
2023-02-05T11:56:47.309Z,4720.00
2023-02-05T11:57:47.292Z,4712.00
2023-02-05T11:58:47.280Z,4712.00
2023-02-05T11:59:47.289Z,4728.00
2023-02-05T12:00:47.254Z,4776.00
2023-02-05T12:01:47.377Z,4748.00
2023-02-05T12:02:47.286Z,4760.00
2023-02-05T12:03:47.260Z,4724.00
2023-02-05T12:04:47.224Z,4680.00
2023-02-05T12:05:47.205Z,4620.00
2023-02-05T12:06:47.199Z,4556.00
2023-02-05T12:07:47.231Z,4440.00
2023-02-05T12:08:47.193Z,4376.00
2023-02-05T12:09:47.155Z,4328.00
2023-02-05T12:10:47.176Z,4296.00
2023-02-05T12:11:47.142Z,4300.00
2023-02-05T12:12:47.159Z,4296.00
2023-02-05T12:13:47.136Z,4260.00
2023-02-05T12:14:47.114Z,4288.00
2023-02-05T12:15:47.102Z,4292.00
2023-02-05T12:16:47.089Z,4336.00
2023-02-05T12:17:47.083Z,4348.00
2023-02-05T12:18:47.107Z,4336.00
2023-02-05T12:19:47.066Z,4260.00
2023-02-05T12:20:47.039Z,4184.00
2023-02-05T12:21:47.037Z,4104.00
2023-02-05T12:22:47.047Z,4036.00
2023-02-05T12:23:47.031Z,3980.00
2023-02-05T12:24:47.010Z,3944.00
2023-02-05T12:25:46.987Z,3912.00
2023-02-05T12:26:46.987Z,3900.00
2023-02-05T12:27:47.014Z,3900.00
2023-02-05T12:28:46.963Z,3876.00
2023-02-05T12:29:46.942Z,3840.00
2023-02-05T12:30:46.964Z,3832.00
2023-02-05T12:31:47.043Z,3832.00
2023-02-05T12:32:46.938Z,3812.00
2023-02-05T12:33:46.892Z,3764.00
2023-02-05T12:34:46.910Z,3732.00
2023-02-05T12:35:46.906Z,3708.00
2023-02-05T12:36:46.861Z,3708.00
2023-02-05T12:37:46.896Z,3700.00
2023-02-05T12:38:46.873Z,3708.00
2023-02-05T12:39:46.844Z,3732.00
2023-02-05T12:40:46.835Z,3724.00
2023-02-05T12:41:46.816Z,3704.00
2023-02-05T12:42:46.864Z,3708.00
2023-02-05T12:43:46.844Z,3736.00